createdAt,value
2023-05-13T00:01:43.563Z,18.30
2023-05-13T00:04:13.200Z,16.27
2023-05-13T00:06:42.674Z,25.67
2023-05-13T00:09:12.746Z,17.20
2023-05-13T00:11:43.913Z,16.80
2023-05-13T00:14:13.485Z,18.90
2023-05-13T00:16:43.489Z,22.00
2023-05-13T00:19:13.491Z,17.30
2023-05-13T00:21:42.777Z,18.67
2023-05-13T00:24:12.847Z,20.98
2023-05-13T00:26:43.596Z,17.55
2023-05-13T00:29:13.618Z,20.23
2023-05-13T00:31:42.917Z,20.45
2023-05-13T00:34:12.665Z,19.60
2023-05-13T00:36:41.963Z,25.13
2023-05-13T00:39:11.932Z,24.65
2023-05-13T00:41:41.134Z,20.35
2023-05-13T00:44:14.405Z,25.88
2023-05-13T00:46:44.604Z,16.83
2023-05-13T00:49:14.322Z,18.92
2023-05-13T00:51:43.548Z,20.40
2023-05-13T00:54:13.184Z,18.92
2023-05-13T00:56:42.526Z,19.60
2023-05-13T00:59:13.586Z,21.83
2023-05-13T01:01:51.485Z,24.45
2023-05-13T01:04:32.629Z,17.88
2023-05-13T01:07:10.557Z,21.10
2023-05-13T01:09:49.951Z,21.95
2023-05-13T01:12:23.545Z,19.88
2023-05-13T01:15:05.303Z,22.48
2023-05-13T01:17:39.351Z,22.02
2023-05-13T01:20:11.450Z,17.98
2023-05-13T01:22:42.215Z,21.33
2023-05-13T01:25:11.794Z,26.73
2023-05-13T01:27:41.383Z,27.20
2023-05-13T01:30:12.554Z,23.65
2023-05-13T01:32:42.886Z,20.77
2023-05-13T01:35:13.511Z,21.23
2023-05-13T01:37:45.243Z,16.63
2023-05-13T01:40:31.035Z,21.67
2023-05-13T01:43:01.982Z,23.58
2023-05-13T01:45:33.515Z,26.33
2023-05-13T01:48:02.880Z,26.17
2023-05-13T01:50:32.761Z,18.90
2023-05-13T01:53:03.492Z,25.17
2023-05-13T01:55:33.095Z,24.30
2023-05-13T01:58:02.349Z,22.02
2023-05-13T02:00:31.935Z,24.63
2023-05-13T02:03:01.392Z,28.55
2023-05-13T02:05:33.412Z,20.73
2023-05-13T02:08:04.204Z,20.63
2023-05-13T02:10:33.932Z,25.20
2023-05-13T02:13:04.198Z,23.40
2023-05-13T02:15:33.760Z,22.08
2023-05-13T02:18:03.029Z,24.17
2023-05-13T02:20:32.696Z,25.02
2023-05-13T02:23:03.535Z,21.27
2023-05-13T02:25:33.508Z,23.77
2023-05-13T02:28:02.780Z,24.88
2023-05-13T02:30:32.696Z,22.00
2023-05-13T02:33:03.238Z,21.60
2023-05-13T02:38:04.623Z,21.27
2023-05-13T02:40:34.289Z,25.30
2023-05-13T02:43:03.631Z,25.35
2023-05-13T02:45:33.505Z,18.90
2023-05-13T02:48:02.813Z,19.00
2023-05-13T02:50:32.546Z,21.17
2023-05-13T02:53:03.463Z,23.80
2023-05-13T02:55:33.000Z,25.52
2023-05-13T02:58:02.218Z,22.55
2023-05-13T03:00:31.877Z,19.88
2023-05-13T03:03:01.194Z,20.80
2023-05-13T03:05:30.983Z,23.85
2023-05-13T03:08:00.216Z,21.17
2023-05-13T03:10:31.442Z,23.67
2023-05-13T03:13:00.699Z,17.48
2023-05-13T03:15:30.289Z,27.50
2023-05-13T03:17:59.711Z,18.90
2023-05-13T03:20:29.319Z,22.38
2023-05-13T03:22:59.146Z,20.45
2023-05-13T03:25:28.727Z,26.40
2023-05-13T03:27:59.608Z,28.70
2023-05-13T03:30:29.129Z,22.67
2023-05-13T03:32:59.371Z,22.00
2023-05-13T03:35:28.698Z,24.63
2023-05-13T03:37:58.272Z,22.10
2023-05-13T03:40:27.614Z,29.25
2023-05-13T03:42:58.643Z,22.98
2023-05-13T03:45:27.940Z,29.83
2023-05-13T03:47:57.913Z,23.88
2023-05-13T03:50:27.702Z,20.35
2023-05-13T03:52:58.236Z,20.80
2023-05-13T03:55:27.477Z,24.85
2023-05-13T03:57:58.598Z,22.05
2023-05-13T04:00:27.792Z,20.83
2023-05-13T04:02:57.742Z,24.05
2023-05-13T04:05:27.041Z,27.85
2023-05-13T04:07:56.758Z,23.35
2023-05-13T04:10:25.987Z,21.80
2023-05-13T04:12:55.539Z,20.88
2023-05-13T04:15:26.278Z,22.40
2023-05-13T04:17:55.861Z,27.60
2023-05-13T04:20:25.289Z,21.73
2023-05-13T04:22:54.902Z,28.88
2023-05-13T04:25:24.125Z,27.20
2023-05-13T04:27:54.333Z,24.33
2023-05-13T04:30:23.769Z,19.88
2023-05-13T04:32:55.318Z,26.42
2023-05-13T04:35:24.981Z,28.58
2023-05-13T04:37:55.105Z,24.65
2023-05-13T04:40:24.388Z,23.35
2023-05-13T04:42:55.306Z,22.10
2023-05-13T04:45:25.225Z,25.45
2023-05-13T04:47:58.378Z,20.70
2023-05-13T04:50:27.941Z,18.52
2023-05-13T04:52:58.414Z,24.63
2023-05-13T04:55:27.945Z,27.42
2023-05-13T04:57:58.007Z,26.20
2023-05-13T05:00:27.461Z,27.02
2023-05-13T05:02:58.860Z,22.15
2023-05-13T05:05:28.166Z,18.35
2023-05-13T05:07:58.402Z,21.07
2023-05-13T05:10:27.857Z,20.40
2023-05-13T05:12:57.570Z,22.13
2023-05-13T05:15:26.828Z,19.95
2023-05-13T05:17:58.561Z,11.13
2023-05-13T05:20:28.031Z,9.73
2023-05-13T05:22:58.032Z,12.43
2023-05-13T05:25:28.247Z,17.05
2023-05-13T05:27:58.414Z,17.70
2023-05-13T05:30:27.832Z,14.88
2023-05-13T05:32:59.289Z,10.73
2023-05-13T05:35:28.724Z,10.05
2023-05-13T05:37:59.041Z,13.27
2023-05-13T05:40:28.626Z,13.25
2023-05-13T05:42:58.193Z,12.57
2023-05-13T05:45:27.587Z,10.82
2023-05-13T05:47:58.709Z,11.48
2023-05-13T05:50:28.348Z,14.15
2023-05-13T05:52:59.493Z,9.85
2023-05-13T05:55:29.278Z,8.05
2023-05-13T05:58:04.073Z,11.60
2023-05-13T06:00:33.962Z,7.68
2023-05-13T06:03:06.051Z,9.15
2023-05-13T06:05:35.627Z,8.55
2023-05-13T06:08:05.264Z,7.57
2023-05-13T06:10:34.494Z,9.90
2023-05-13T06:13:04.628Z,10.30
2023-05-13T06:15:34.081Z,8.98
2023-05-13T06:18:06.008Z,9.38
2023-05-13T06:20:35.349Z,11.40
2023-05-13T06:23:05.079Z,10.68
2023-05-13T06:25:34.386Z,9.27
2023-05-13T06:28:04.320Z,6.80
2023-05-13T06:30:33.586Z,8.50
2023-05-13T06:33:04.691Z,4.20
2023-05-13T06:35:34.342Z,6.43
2023-05-13T06:38:03.921Z,9.68
2023-05-13T06:40:33.490Z,6.20
2023-05-13T06:43:03.434Z,10.00
2023-05-13T06:45:32.883Z,7.55
2023-05-13T06:48:02.938Z,11.80
2023-05-13T06:50:33.996Z,12.27
2023-05-13T06:53:04.411Z,7.03
2023-05-13T06:55:36.181Z,8.53
2023-05-13T06:58:05.937Z,7.22
2023-05-13T07:00:38.138Z,9.15
2023-05-13T07:03:08.784Z,14.75
2023-05-13T07:05:39.503Z,6.25
2023-05-13T07:08:09.163Z,9.38
2023-05-13T07:10:38.627Z,6.47
2023-05-13T07:13:08.405Z,9.00
2023-05-13T07:15:37.619Z,9.40
2023-05-13T07:18:07.927Z,11.30
2023-05-13T07:20:39.133Z,10.05
2023-05-13T07:23:08.884Z,9.60
2023-05-13T07:25:38.621Z,13.27
2023-05-13T07:28:08.377Z,10.20
2023-05-13T07:30:37.739Z,7.07
2023-05-13T07:33:07.919Z,11.77
2023-05-13T07:35:39.027Z,6.90
2023-05-13T07:38:12.171Z,10.02
2023-05-13T07:40:42.075Z,10.90
2023-05-13T07:43:13.879Z,9.40
2023-05-13T07:45:43.082Z,9.07
2023-05-13T07:48:13.023Z,9.77
2023-05-13T07:50:43.796Z,6.30
2023-05-13T07:53:13.720Z,8.98
2023-05-13T07:55:43.466Z,7.32
2023-05-13T07:58:13.163Z,10.18
2023-05-13T08:00:42.623Z,5.25
2023-05-13T08:03:12.730Z,6.10
2023-05-13T08:05:43.602Z,11.30
2023-05-13T08:08:13.544Z,8.13
2023-05-13T08:10:42.831Z,13.13
2023-05-13T08:13:12.480Z,11.97
2023-05-13T08:15:41.728Z,4.75
2023-05-13T08:18:11.389Z,9.87
2023-05-13T08:20:41.116Z,13.00
2023-05-13T08:23:12.538Z,8.77
2023-05-13T08:25:42.035Z,8.02
2023-05-13T08:28:12.084Z,6.72
2023-05-13T08:30:44.655Z,6.47
2023-05-13T08:33:14.446Z,9.65
2023-05-13T08:35:44.904Z,7.90
2023-05-13T08:38:16.058Z,6.55
2023-05-13T08:40:45.402Z,6.43
2023-05-13T08:43:17.612Z,7.35
2023-05-13T08:45:48.775Z,6.00
2023-05-13T08:48:20.247Z,10.57
2023-05-13T08:50:50.175Z,12.45
2023-05-13T08:53:22.940Z,8.35
2023-05-13T08:55:53.259Z,10.20
2023-05-13T08:58:23.189Z,6.53
2023-05-13T09:00:54.281Z,12.38
2023-05-13T09:03:24.517Z,7.00
2023-05-13T09:05:53.855Z,6.53
2023-05-13T09:08:25.061Z,7.30
2023-05-13T09:10:55.830Z,5.00
2023-05-13T09:13:25.426Z,5.72
2023-05-13T09:15:55.456Z,6.75
2023-05-13T09:18:32.140Z,10.60
2023-05-13T09:21:25.200Z,8.82
2023-05-13T09:24:13.404Z,8.35
2023-05-13T09:26:44.218Z,3.58
2023-05-13T09:29:18.880Z,7.85
2023-05-13T09:31:50.255Z,5.30
2023-05-13T09:34:31.189Z,11.35
2023-05-13T09:37:03.329Z,10.52
2023-05-13T09:39:39.696Z,7.28
2023-05-13T09:42:16.803Z,4.78
2023-05-13T09:44:47.646Z,8.05
2023-05-13T09:47:18.167Z,8.77
2023-05-13T09:49:56.993Z,5.43
2023-05-13T09:52:26.207Z,9.70
2023-05-13T09:54:58.749Z,10.77
2023-05-13T09:57:29.903Z,10.48
2023-05-13T10:00:00.504Z,5.65
2023-05-13T10:02:30.369Z,8.60
2023-05-13T10:05:00.711Z,6.38
2023-05-13T10:07:33.379Z,7.73
2023-05-13T10:10:06.175Z,11.73
2023-05-13T10:12:37.813Z,7.20
2023-05-13T10:15:08.474Z,4.93
2023-05-13T10:17:38.292Z,12.35
2023-05-13T10:20:09.015Z,8.40
2023-05-13T10:22:39.563Z,6.57
2023-05-13T10:25:11.698Z,5.43
2023-05-13T10:27:42.253Z,5.13
2023-05-13T10:30:13.636Z,5.57
2023-05-13T10:32:43.525Z,5.82
2023-05-13T10:38:02.007Z,5.82
2023-05-13T10:40:51.927Z,4.95
2023-05-13T10:43:22.333Z,6.57
2023-05-13T10:45:53.740Z,6.13
2023-05-13T10:48:24.115Z,6.30
2023-05-13T10:50:56.452Z,11.13
2023-05-13T10:53:27.465Z,5.30
2023-05-13T10:55:59.930Z,8.63
2023-05-13T10:58:33.644Z,7.07
2023-05-13T11:01:28.638Z,2.92
2023-05-13T11:04:00.036Z,4.22
2023-05-13T11:06:35.346Z,10.60
2023-05-13T11:09:07.521Z,6.07
2023-05-13T11:11:38.789Z,8.63
2023-05-13T11:14:18.132Z,4.70
2023-05-13T11:16:49.795Z,4.88
2023-05-13T11:19:23.254Z,11.98
2023-05-13T11:21:55.937Z,4.88
2023-05-13T11:24:25.755Z,13.43
2023-05-13T11:26:59.288Z,9.18
2023-05-13T11:29:32.970Z,6.43
2023-05-13T11:32:04.450Z,4.32
2023-05-13T11:34:34.548Z,7.50
2023-05-13T11:37:11.433Z,4.40
2023-05-13T11:39:42.722Z,6.97
2023-05-13T11:42:14.036Z,6.30
2023-05-13T11:44:48.431Z,8.15
2023-05-13T11:47:27.900Z,7.65
2023-05-13T11:49:57.585Z,5.20
2023-05-13T11:54:59.855Z,7.63
2023-05-13T11:57:33.653Z,6.35
2023-05-13T12:00:05.153Z,12.07
2023-05-13T12:02:37.975Z,4.50
2023-05-13T12:05:08.869Z,5.45
2023-05-13T12:07:39.820Z,10.27
2023-05-13T12:10:10.061Z,3.53
2023-05-13T12:12:42.261Z,6.88
2023-05-13T12:15:14.322Z,7.40
2023-05-13T12:17:44.419Z,9.63
2023-05-13T12:20:15.701Z,7.60
2023-05-13T12:22:53.802Z,9.18
2023-05-13T12:25:43.110Z,6.40
2023-05-13T12:28:17.598Z,9.25
2023-05-13T12:30:53.321Z,5.93
2023-05-13T12:33:24.552Z,5.00
2023-05-13T12:35:55.598Z,3.08
2023-05-13T12:38:25.974Z,4.78
2023-05-13T12:43:26.554Z,4.15
2023-05-13T12:46:02.199Z,7.00
2023-05-13T12:48:35.194Z,3.58
2023-05-13T12:51:04.506Z,5.43
2023-05-13T12:53:34.449Z,8.82
2023-05-13T12:56:03.799Z,5.35
2023-05-13T12:58:35.183Z,4.75
2023-05-13T13:01:04.460Z,17.42
2023-05-13T13:03:34.323Z,8.35
2023-05-13T13:06:03.630Z,8.93
2023-05-13T13:08:33.593Z,7.03
2023-05-13T13:11:03.057Z,9.93
2023-05-13T13:16:06.505Z,8.38
2023-05-13T13:18:36.453Z,6.38
2023-05-13T13:21:07.431Z,9.10
2023-05-13T13:23:37.274Z,6.97
2023-05-13T13:26:06.672Z,8.57
2023-05-13T13:28:37.709Z,13.10
2023-05-13T13:31:08.038Z,11.25
2023-05-13T13:33:37.898Z,11.35
2023-05-13T13:36:07.669Z,10.20
2023-05-13T13:38:37.305Z,5.88
2023-05-13T13:41:06.574Z,9.18
2023-05-13T13:43:37.908Z,10.40
2023-05-13T13:46:07.488Z,8.93
2023-05-13T13:48:37.159Z,9.50
2023-05-13T13:51:06.994Z,7.50
2023-05-13T13:56:05.629Z,11.10
2023-05-13T13:58:37.437Z,7.55
2023-05-13T14:01:06.817Z,5.97
2023-05-13T14:03:36.493Z,5.45
2023-05-13T14:06:06.572Z,12.30
2023-05-13T14:08:36.156Z,7.95
2023-05-13T14:11:05.585Z,10.25
2023-05-13T14:13:36.711Z,8.82
2023-05-13T14:16:06.932Z,10.43
2023-05-13T14:18:36.660Z,13.98
2023-05-13T14:21:06.288Z,9.20
2023-05-13T14:23:36.024Z,7.47
2023-05-13T14:26:05.394Z,8.48
2023-05-13T14:28:36.920Z,5.82
2023-05-13T14:31:06.537Z,11.25
2023-05-13T14:33:36.207Z,8.77
2023-05-13T14:36:05.847Z,7.53
2023-05-13T14:38:35.453Z,8.60
2023-05-13T14:41:04.827Z,8.35
2023-05-13T14:43:34.424Z,12.48
2023-05-13T14:46:05.187Z,12.23
2023-05-13T14:48:34.811Z,10.13
2023-05-13T14:51:04.043Z,14.33
2023-05-13T14:53:33.679Z,12.25
2023-05-13T14:56:02.979Z,12.50
2023-05-13T14:58:32.760Z,15.35
2023-05-13T15:01:02.171Z,6.47
2023-05-13T15:03:33.448Z,15.43
2023-05-13T15:06:03.023Z,12.20
2023-05-13T15:08:32.625Z,13.60
2023-05-13T15:11:01.937Z,9.87
2023-05-13T15:13:35.401Z,13.70
2023-05-13T15:16:04.906Z,10.02
2023-05-13T15:18:36.225Z,12.07
2023-05-13T15:21:05.583Z,13.90
2023-05-13T15:26:04.991Z,7.82
2023-05-13T15:31:03.490Z,7.97
2023-05-13T15:33:34.701Z,14.98
2023-05-13T15:36:05.890Z,14.30
2023-05-13T15:38:35.705Z,10.57
2023-05-13T15:41:05.038Z,16.48
2023-05-13T15:43:34.707Z,12.93
2023-05-13T15:46:04.037Z,7.20
2023-05-13T15:48:35.435Z,13.25
2023-05-13T15:51:04.828Z,8.27
2023-05-13T15:53:34.579Z,11.45
2023-05-13T15:56:03.787Z,13.60
2023-05-13T15:58:33.433Z,7.43
2023-05-13T16:01:02.672Z,4.78
2023-05-13T16:03:32.241Z,6.30
2023-05-13T16:06:03.037Z,12.82
2023-05-13T16:08:32.635Z,9.65
2023-05-13T16:11:01.878Z,14.48
2023-05-13T16:13:31.744Z,12.55
2023-05-13T16:16:01.122Z,11.43
2023-05-13T16:18:30.886Z,7.85
2023-05-13T16:21:01.743Z,12.67
2023-05-13T16:23:31.324Z,12.38
2023-05-13T16:26:00.710Z,10.60
2023-05-13T16:28:30.307Z,7.30
2023-05-13T16:30:59.641Z,6.30
2023-05-13T16:33:32.207Z,6.78
2023-05-13T16:36:03.099Z,12.10
2023-05-13T16:38:35.502Z,6.20
2023-05-13T16:41:06.004Z,7.97
2023-05-13T16:43:35.587Z,7.40
2023-05-13T16:46:04.861Z,13.10
2023-05-13T16:48:34.525Z,8.98
2023-05-13T16:51:05.402Z,11.03
2023-05-13T16:53:35.387Z,8.38
2023-05-13T16:56:04.905Z,8.05
2023-05-13T16:58:34.560Z,10.73
2023-05-13T17:01:03.835Z,8.88
2023-05-13T17:03:33.577Z,9.43
2023-05-13T17:06:03.426Z,8.80
2023-05-13T17:08:34.592Z,14.82
2023-05-13T17:11:03.901Z,9.73
2023-05-13T17:13:33.834Z,5.43
2023-05-13T17:16:03.087Z,12.82
2023-05-13T17:18:32.705Z,7.47
2023-05-13T17:21:04.122Z,12.00
2023-05-13T17:23:35.933Z,4.35
2023-05-13T17:26:05.213Z,4.18
2023-05-13T17:28:35.200Z,6.82
2023-05-13T17:31:04.928Z,7.38
2023-05-13T17:33:34.670Z,11.40
2023-05-13T17:36:04.253Z,8.65
2023-05-13T17:38:35.321Z,5.32
2023-05-13T17:41:05.105Z,6.05
2023-05-13T17:43:34.696Z,11.65
2023-05-13T17:46:04.376Z,5.07
2023-05-13T17:48:34.516Z,4.53
2023-05-13T17:51:03.817Z,8.68
2023-05-13T17:53:35.318Z,7.28
2023-05-13T17:56:05.070Z,6.97
2023-05-13T17:58:34.689Z,12.75
2023-05-13T18:01:04.276Z,10.63
2023-05-13T18:03:33.850Z,5.95
2023-05-13T18:06:03.234Z,10.02
2023-05-13T18:08:34.774Z,8.15
2023-05-13T18:11:04.389Z,7.40
2023-05-13T18:13:35.712Z,9.60
2023-05-13T18:16:06.352Z,5.88
2023-05-13T18:18:36.163Z,7.80
2023-05-13T18:21:05.514Z,8.23
2023-05-13T18:23:36.675Z,5.37
2023-05-13T18:26:06.158Z,6.50
2023-05-13T18:28:35.822Z,6.07
2023-05-13T18:31:05.321Z,7.50
2023-05-13T18:33:34.973Z,8.93
2023-05-13T18:36:04.250Z,13.27
2023-05-13T18:38:33.801Z,8.07
2023-05-13T18:41:05.226Z,11.45
2023-05-13T18:43:34.841Z,7.53
2023-05-13T18:46:04.198Z,11.43
2023-05-13T18:48:33.831Z,7.60
2023-05-13T18:51:03.241Z,11.13
2023-05-13T18:53:32.849Z,13.35
2023-05-13T18:56:03.587Z,4.82
2023-05-13T18:58:33.243Z,11.10
2023-05-13T19:01:02.568Z,6.97
2023-05-13T19:03:32.772Z,13.82
2023-05-13T19:06:02.106Z,9.50
2023-05-13T19:08:32.116Z,19.02
2023-05-13T19:11:01.655Z,4.07
2023-05-13T19:13:43.362Z,3.92
2023-05-13T19:16:16.629Z,5.25
2023-05-13T19:18:46.701Z,5.10
2023-05-13T19:21:16.014Z,7.47
2023-05-13T19:23:46.067Z,4.28
2023-05-13T19:26:15.480Z,8.30
2023-05-13T19:28:47.064Z,9.65
2023-05-13T19:31:16.303Z,8.30
2023-05-13T19:33:46.465Z,3.97
2023-05-13T19:36:15.871Z,9.48
2023-05-13T19:38:45.879Z,5.75
2023-05-13T19:41:15.498Z,6.32
2023-05-13T19:43:47.709Z,5.25
2023-05-13T19:46:17.497Z,9.38
2023-05-13T19:48:47.171Z,12.63
2023-05-13T19:51:16.401Z,13.38
2023-05-13T19:53:46.515Z,15.55
2023-05-13T19:56:15.802Z,10.73
2023-05-13T19:58:46.899Z,11.17
2023-05-13T20:03:46.267Z,14.57
2023-05-13T20:06:15.844Z,9.40
2023-05-13T20:08:46.152Z,18.60
2023-05-13T20:11:15.710Z,10.05
2023-05-13T20:13:46.940Z,8.68
2023-05-13T20:16:16.269Z,11.45
2023-05-13T20:18:46.185Z,20.87
2023-05-13T20:21:16.467Z,8.65
2023-05-13T20:23:46.107Z,9.52
2023-05-13T20:26:15.681Z,14.40
2023-05-13T20:28:48.089Z,14.13
2023-05-13T20:31:18.313Z,15.63
2023-05-13T20:33:48.484Z,13.57
2023-05-13T20:36:18.266Z,15.77
2023-05-13T20:38:48.052Z,17.95
2023-05-13T20:41:17.464Z,11.85
2023-05-13T20:43:48.667Z,13.13
2023-05-13T20:46:18.163Z,10.70
2023-05-13T20:48:48.157Z,12.45
2023-05-13T20:51:17.438Z,11.68
2023-05-13T20:53:47.961Z,12.18
2023-05-13T20:56:17.761Z,10.43
2023-05-13T20:58:48.870Z,8.70
2023-05-13T21:03:49.954Z,10.35
2023-05-13T21:06:19.386Z,8.50
2023-05-13T21:08:49.008Z,11.82
2023-05-13T21:11:18.203Z,6.93
2023-05-13T21:13:49.540Z,9.65
2023-05-13T21:16:18.916Z,5.93
2023-05-13T21:18:48.658Z,6.90
2023-05-13T21:21:17.944Z,7.55
2023-05-13T21:23:49.022Z,10.27
2023-05-13T21:26:18.348Z,9.55
2023-05-13T21:28:49.867Z,7.45
2023-05-13T21:33:49.152Z,6.68
2023-05-13T21:36:18.718Z,5.95
2023-05-13T21:38:48.638Z,6.05
2023-05-13T21:41:20.167Z,7.38
2023-05-13T21:43:51.360Z,8.55
2023-05-13T21:46:21.133Z,9.05
2023-05-13T21:48:50.772Z,7.65
2023-05-13T21:51:20.032Z,6.03
2023-05-13T21:53:49.740Z,9.13
2023-05-13T21:56:19.157Z,10.05
2023-05-13T21:58:51.566Z,11.23
2023-05-13T22:01:22.557Z,6.75
2023-05-13T22:03:52.113Z,9.48
2023-05-13T22:06:21.583Z,6.88
2023-05-13T22:08:51.163Z,11.07
2023-05-13T22:11:20.365Z,7.20
2023-05-13T22:13:52.014Z,9.23
2023-05-13T22:16:21.751Z,6.03
2023-05-13T22:21:21.106Z,9.68
2023-05-13T22:23:51.548Z,9.05
2023-05-13T22:26:22.088Z,12.90
2023-05-13T22:28:53.219Z,10.35
2023-05-13T22:33:52.057Z,11.43
2023-05-13T22:36:21.319Z,6.13
2023-05-13T22:38:51.219Z,5.80
2023-05-13T22:41:23.875Z,8.63
2023-05-13T22:43:55.397Z,9.45
2023-05-13T22:46:25.122Z,5.68
2023-05-13T22:48:55.066Z,6.90
2023-05-13T22:51:24.532Z,8.82
2023-05-13T22:53:54.278Z,5.93
2023-05-13T22:56:23.567Z,18.65
2023-05-13T22:58:54.715Z,9.02
2023-05-13T23:03:53.673Z,11.23
2023-05-13T23:06:22.957Z,5.35
2023-05-13T23:08:52.526Z,6.57
2023-05-13T23:11:21.752Z,6.30
2023-05-13T23:13:51.465Z,8.15
2023-05-13T23:16:22.260Z,6.85
2023-05-13T23:19:05.686Z,11.38
2023-05-13T23:21:35.575Z,7.35
2023-05-13T23:24:05.907Z,8.43
2023-05-13T23:26:35.208Z,11.82
2023-05-13T23:29:05.800Z,11.32
2023-05-13T23:31:36.704Z,7.97
2023-05-13T23:34:06.323Z,12.82
2023-05-13T23:36:35.773Z,7.65
2023-05-13T23:39:05.510Z,15.65
2023-05-13T23:41:36.055Z,12.55
2023-05-13T23:44:05.955Z,8.10
2023-05-13T23:46:36.634Z,9.27
2023-05-13T23:49:06.589Z,11.00
2023-05-13T23:51:36.137Z,25.55
2023-05-13T23:54:05.887Z,7.28
2023-05-13T23:56:35.144Z,10.70
2023-05-13T23:59:05.171Z,10.60
